sensor_id;sensor_type;location;lat;lon;timestamp;P1;durP1;ratioP1;P2;durP2;ratioP2
56141;SDS011;42018;48.588;10.836;2022-11-14T00:01:04;10.23;;;7.55;;
56141;SDS011;42018;48.588;10.836;2022-11-14T00:03:51;9.88;;;7.47;;
56141;SDS011;42018;48.588;10.836;2022-11-14T00:06:37;9.00;;;7.15;;
56141;SDS011;42018;48.588;10.836;2022-11-14T00:09:25;12.02;;;7.30;;
56141;SDS011;42018;48.588;10.836;2022-11-14T00:12:11;15.47;;;8.00;;
56141;SDS011;42018;48.588;10.836;2022-11-14T00:14:57;10.52;;;7.85;;
56141;SDS011;42018;48.588;10.836;2022-11-14T00:17:42;12.25;;;8.50;;
56141;SDS011;42018;48.588;10.836;2022-11-14T00:20:28;13.20;;;9.10;;
56141;SDS011;42018;48.588;10.836;2022-11-14T00:23:13;13.15;;;8.80;;
56141;SDS011;42018;48.588;10.836;2022-11-14T00:25:58;11.80;;;8.38;;
56141;SDS011;42018;48.588;10.836;2022-11-14T00:28:44;11.52;;;7.75;;
56141;SDS011;42018;48.588;10.836;2022-11-14T00:31:29;14.68;;;9.07;;
56141;SDS011;42018;48.588;10.836;2022-11-14T00:34:14;15.75;;;9.27;;
56141;SDS011;42018;48.588;10.836;2022-11-14T00:37:00;16.55;;;9.48;;
56141;SDS011;42018;48.588;10.836;2022-11-14T00:39:45;13.50;;;9.15;;
56141;SDS011;42018;48.588;10.836;2022-11-14T00:42:30;12.75;;;9.20;;
56141;SDS011;42018;48.588;10.836;2022-11-14T00:45:16;12.63;;;9.10;;
56141;SDS011;42018;48.588;10.836;2022-11-14T00:48:01;12.93;;;9.15;;
56141;SDS011;42018;48.588;10.836;2022-11-14T00:50:47;15.45;;;10.52;;
56141;SDS011;42018;48.588;10.836;2022-11-14T00:53:32;15.02;;;9.13;;
56141;SDS011;42018;48.588;10.836;2022-11-14T00:56:18;15.85;;;9.98;;
56141;SDS011;42018;48.588;10.836;2022-11-14T00:59:03;15.10;;;9.63;;
56141;SDS011;42018;48.588;10.836;2022-11-14T01:01:48;14.32;;;9.73;;
56141;SDS011;42018;48.588;10.836;2022-11-14T01:04:34;16.65;;;10.30;;
56141;SDS011;42018;48.588;10.836;2022-11-14T01:07:19;14.48;;;9.30;;
56141;SDS011;42018;48.588;10.836;2022-11-14T01:10:05;15.43;;;10.02;;
56141;SDS011;42018;48.588;10.836;2022-11-14T01:12:51;14.40;;;10.20;;
56141;SDS011;42018;48.588;10.836;2022-11-14T01:15:39;13.30;;;9.73;;
56141;SDS011;42018;48.588;10.836;2022-11-14T01:18:26;14.98;;;9.70;;
56141;SDS011;42018;48.588;10.836;2022-11-14T01:21:12;12.88;;;9.45;;
56141;SDS011;42018;48.588;10.836;2022-11-14T01:23:58;13.93;;;10.50;;
56141;SDS011;42018;48.588;10.836;2022-11-14T01:26:44;14.85;;;10.10;;
56141;SDS011;42018;48.588;10.836;2022-11-14T01:29:29;17.45;;;9.45;;
56141;SDS011;42018;48.588;10.836;2022-11-14T01:32:14;16.02;;;10.10;;
56141;SDS011;42018;48.588;10.836;2022-11-14T01:35:00;13.73;;;9.57;;
56141;SDS011;42018;48.588;10.836;2022-11-14T01:37:45;13.20;;;9.13;;
56141;SDS011;42018;48.588;10.836;2022-11-14T01:40:31;13.02;;;9.82;;
56141;SDS011;42018;48.588;10.836;2022-11-14T01:52:05;13.85;;;9.45;;
56141;SDS011;42018;48.588;10.836;2022-11-14T01:54:54;11.85;;;9.07;;
56141;SDS011;42018;48.588;10.836;2022-11-14T01:57:43;12.35;;;8.77;;
56141;SDS011;42018;48.588;10.836;2022-11-14T02:00:31;11.70;;;8.77;;
56141;SDS011;42018;48.588;10.836;2022-11-14T02:03:16;10.70;;;8.73;;
56141;SDS011;42018;48.588;10.836;2022-11-14T02:06:03;11.90;;;8.18;;
56141;SDS011;42018;48.588;10.836;2022-11-14T02:08:50;12.20;;;8.27;;
56141;SDS011;42018;48.588;10.836;2022-11-14T02:11:37;11.38;;;8.32;;
56141;SDS011;42018;48.588;10.836;2022-11-14T02:14:26;11.02;;;7.88;;
56141;SDS011;42018;48.588;10.836;2022-11-14T02:17:14;11.95;;;8.40;;
56141;SDS011;42018;48.588;10.836;2022-11-14T02:22:49;10.80;;;8.23;;
56141;SDS011;42018;48.588;10.836;2022-11-14T02:25:35;10.82;;;8.45;;
56141;SDS011;42018;48.588;10.836;2022-11-14T02:28:21;12.77;;;8.18;;
56141;SDS011;42018;48.588;10.836;2022-11-14T02:31:07;12.02;;;8.80;;
56141;SDS011;42018;48.588;10.836;2022-11-14T02:33:52;10.43;;;7.90;;
56141;SDS011;42018;48.588;10.836;2022-11-14T02:36:37;11.75;;;8.48;;
56141;SDS011;42018;48.588;10.836;2022-11-14T02:39:23;13.57;;;9.00;;
56141;SDS011;42018;48.588;10.836;2022-11-14T02:42:09;12.80;;;8.90;;
56141;SDS011;42018;48.588;10.836;2022-11-14T02:44:54;13.32;;;9.23;;
56141;SDS011;42018;48.588;10.836;2022-11-14T02:47:40;11.85;;;8.63;;
56141;SDS011;42018;48.588;10.836;2022-11-14T02:50:25;12.90;;;9.50;;
56141;SDS011;42018;48.588;10.836;2022-11-14T02:53:10;12.73;;;9.75;;
56141;SDS011;42018;48.588;10.836;2022-11-14T02:55:56;12.45;;;8.95;;
56141;SDS011;42018;48.588;10.836;2022-11-14T02:58:41;12.35;;;8.98;;
56141;SDS011;42018;48.588;10.836;2022-11-14T03:01:26;11.70;;;8.57;;
56141;SDS011;42018;48.588;10.836;2022-11-14T03:04:12;12.02;;;8.50;;
56141;SDS011;42018;48.588;10.836;2022-11-14T03:06:57;12.00;;;8.88;;
56141;SDS011;42018;48.588;10.836;2022-11-14T03:09:42;12.85;;;9.13;;
56141;SDS011;42018;48.588;10.836;2022-11-14T03:12:28;11.82;;;8.65;;
56141;SDS011;42018;48.588;10.836;2022-11-14T03:15:13;12.15;;;9.23;;
56141;SDS011;42018;48.588;10.836;2022-11-14T03:17:58;13.45;;;9.27;;
56141;SDS011;42018;48.588;10.836;2022-11-14T03:20:44;13.82;;;9.18;;
56141;SDS011;42018;48.588;10.836;2022-11-14T03:23:29;12.25;;;8.68;;
56141;SDS011;42018;48.588;10.836;2022-11-14T03:26:15;13.77;;;9.32;;
56141;SDS011;42018;48.588;10.836;2022-11-14T03:29:00;12.10;;;9.10;;
56141;SDS011;42018;48.588;10.836;2022-11-14T03:31:45;13.77;;;9.68;;
56141;SDS011;42018;48.588;10.836;2022-11-14T03:34:31;11.65;;;9.05;;
56141;SDS011;42018;48.588;10.836;2022-11-14T03:37:16;14.40;;;10.02;;
56141;SDS011;42018;48.588;10.836;2022-11-14T03:40:02;14.48;;;9.90;;
56141;SDS011;42018;48.588;10.836;2022-11-14T03:42:48;16.80;;;9.65;;
56141;SDS011;42018;48.588;10.836;2022-11-14T03:45:35;12.45;;;8.90;;
56141;SDS011;42018;48.588;10.836;2022-11-14T03:48:21;12.93;;;8.98;;
56141;SDS011;42018;48.588;10.836;2022-11-14T03:51:06;13.57;;;9.35;;
56141;SDS011;42018;48.588;10.836;2022-11-14T03:53:52;13.27;;;9.63;;
56141;SDS011;42018;48.588;10.836;2022-11-14T03:56:37;12.88;;;9.98;;
56141;SDS011;42018;48.588;10.836;2022-11-14T03:59:22;14.10;;;10.40;;
56141;SDS011;42018;48.588;10.836;2022-11-14T04:02:08;13.65;;;10.13;;
56141;SDS011;42018;48.588;10.836;2022-11-14T04:04:53;12.07;;;9.32;;
56141;SDS011;42018;48.588;10.836;2022-11-14T04:07:38;14.02;;;9.43;;
56141;SDS011;42018;48.588;10.836;2022-11-14T04:10:24;13.15;;;10.07;;
56141;SDS011;42018;48.588;10.836;2022-11-14T04:13:10;13.55;;;9.57;;
56141;SDS011;42018;48.588;10.836;2022-11-14T04:15:56;12.02;;;8.77;;
56141;SDS011;42018;48.588;10.836;2022-11-14T04:18:42;10.52;;;8.52;;
56141;SDS011;42018;48.588;10.836;2022-11-14T04:21:27;10.80;;;8.05;;
56141;SDS011;42018;48.588;10.836;2022-11-14T04:24:12;13.77;;;10.18;;
56141;SDS011;42018;48.588;10.836;2022-11-14T04:26:58;13.85;;;10.10;;
56141;SDS011;42018;48.588;10.836;2022-11-14T04:29:43;11.00;;;8.98;;
56141;SDS011;42018;48.588;10.836;2022-11-14T04:32:29;14.10;;;9.75;;
56141;SDS011;42018;48.588;10.836;2022-11-14T04:35:14;13.35;;;10.15;;
56141;SDS011;42018;48.588;10.836;2022-11-14T04:38:00;12.32;;;9.35;;
56141;SDS011;42018;48.588;10.836;2022-11-14T04:40:48;13.55;;;9.43;;
56141;SDS011;42018;48.588;10.836;2022-11-14T04:43:35;13.38;;;9.55;;
56141;SDS011;42018;48.588;10.836;2022-11-14T04:46:20;14.07;;;10.32;;
56141;SDS011;42018;48.588;10.836;2022-11-14T04:49:06;13.05;;;8.98;;
56141;SDS011;42018;48.588;10.836;2022-11-14T04:51:51;15.77;;;10.25;;
56141;SDS011;42018;48.588;10.836;2022-11-14T04:54:37;12.32;;;9.32;;
56141;SDS011;42018;48.588;10.836;2022-11-14T04:57:22;13.55;;;9.48;;
56141;SDS011;42018;48.588;10.836;2022-11-14T05:00:08;13.48;;;9.95;;
56141;SDS011;42018;48.588;10.836;2022-11-14T05:02:54;12.05;;;8.48;;
56141;SDS011;42018;48.588;10.836;2022-11-14T05:05:39;12.13;;;8.73;;
56141;SDS011;42018;48.588;10.836;2022-11-14T05:08:24;12.95;;;8.80;;
56141;SDS011;42018;48.588;10.836;2022-11-14T05:11:13;15.25;;;9.82;;
56141;SDS011;42018;48.588;10.836;2022-11-14T05:14:00;14.50;;;10.45;;
56141;SDS011;42018;48.588;10.836;2022-11-14T05:16:45;11.85;;;8.85;;
56141;SDS011;42018;48.588;10.836;2022-11-14T05:19:30;12.07;;;8.13;;
56141;SDS011;42018;48.588;10.836;2022-11-14T05:22:16;12.60;;;9.00;;
56141;SDS011;42018;48.588;10.836;2022-11-14T05:25:02;12.40;;;9.48;;
56141;SDS011;42018;48.588;10.836;2022-11-14T05:27:47;13.07;;;9.73;;
56141;SDS011;42018;48.588;10.836;2022-11-14T05:30:33;12.25;;;9.15;;
56141;SDS011;42018;48.588;10.836;2022-11-14T05:33:18;12.00;;;9.15;;
56141;SDS011;42018;48.588;10.836;2022-11-14T05:36:04;13.10;;;10.00;;
56141;SDS011;42018;48.588;10.836;2022-11-14T05:38:52;12.85;;;9.95;;
56141;SDS011;42018;48.588;10.836;2022-11-14T05:41:38;12.70;;;9.63;;
56141;SDS011;42018;48.588;10.836;2022-11-14T05:44:23;11.77;;;9.05;;
56141;SDS011;42018;48.588;10.836;2022-11-14T05:47:08;11.15;;;8.57;;
56141;SDS011;42018;48.588;10.836;2022-11-14T05:49:54;10.60;;;7.60;;
56141;SDS011;42018;48.588;10.836;2022-11-14T05:52:39;11.82;;;9.18;;
56141;SDS011;42018;48.588;10.836;2022-11-14T05:55:24;11.85;;;9.95;;
56141;SDS011;42018;48.588;10.836;2022-11-14T05:58:09;12.55;;;9.90;;
56141;SDS011;42018;48.588;10.836;2022-11-14T06:01:02;11.30;;;8.65;;
56141;SDS011;42018;48.588;10.836;2022-11-14T06:03:48;12.00;;;9.27;;
56141;SDS011;42018;48.588;10.836;2022-11-14T06:06:33;12.77;;;9.30;;
56141;SDS011;42018;48.588;10.836;2022-11-14T06:09:19;13.40;;;10.10;;
56141;SDS011;42018;48.588;10.836;2022-11-14T06:12:04;13.35;;;10.18;;
56141;SDS011;42018;48.588;10.836;2022-11-14T06:14:51;14.63;;;10.63;;
56141;SDS011;42018;48.588;10.836;2022-11-14T06:17:37;14.98;;;10.30;;
56141;SDS011;42018;48.588;10.836;2022-11-14T06:20:22;13.70;;;9.75;;
56141;SDS011;42018;48.588;10.836;2022-11-14T06:23:07;13.93;;;10.25;;
56141;SDS011;42018;48.588;10.836;2022-11-14T06:25:59;13.65;;;9.55;;
56141;SDS011;42018;48.588;10.836;2022-11-14T06:28:49;14.75;;;10.32;;
56141;SDS011;42018;48.588;10.836;2022-11-14T06:31:36;12.95;;;9.02;;
56141;SDS011;42018;48.588;10.836;2022-11-14T06:34:21;12.90;;;9.63;;
56141;SDS011;42018;48.588;10.836;2022-11-14T06:37:06;12.93;;;9.13;;
56141;SDS011;42018;48.588;10.836;2022-11-14T06:39:52;12.35;;;9.02;;
56141;SDS011;42018;48.588;10.836;2022-11-14T06:42:37;13.57;;;9.50;;
56141;SDS011;42018;48.588;10.836;2022-11-14T06:45:22;13.60;;;8.98;;
56141;SDS011;42018;48.588;10.836;2022-11-14T06:48:08;29.67;;;9.50;;
56141;SDS011;42018;48.588;10.836;2022-11-14T06:50:53;15.15;;;9.32;;
56141;SDS011;42018;48.588;10.836;2022-11-14T06:53:40;15.20;;;9.23;;
56141;SDS011;42018;48.588;10.836;2022-11-14T06:56:26;14.60;;;9.27;;
56141;SDS011;42018;48.588;10.836;2022-11-14T06:59:12;16.35;;;8.98;;
56141;SDS011;42018;48.588;10.836;2022-11-14T07:01:58;16.95;;;9.88;;
56141;SDS011;42018;48.588;10.836;2022-11-14T07:04:43;16.55;;;9.45;;
56141;SDS011;42018;48.588;10.836;2022-11-14T07:07:29;16.75;;;8.52;;
56141;SDS011;42018;48.588;10.836;2022-11-14T07:10:14;17.80;;;8.80;;
56141;SDS011;42018;48.588;10.836;2022-11-14T07:13:00;13.32;;;8.57;;
56141;SDS011;42018;48.588;10.836;2022-11-14T07:15:49;13.05;;;8.35;;
56141;SDS011;42018;48.588;10.836;2022-11-14T07:18:36;14.13;;;8.13;;
56141;SDS011;42018;48.588;10.836;2022-11-14T07:21:21;17.10;;;8.55;;
56141;SDS011;42018;48.588;10.836;2022-11-14T07:24:07;25.02;;;9.32;;
56141;SDS011;42018;48.588;10.836;2022-11-14T07:26:52;13.38;;;7.93;;
56141;SDS011;42018;48.588;10.836;2022-11-14T07:29:38;14.95;;;7.20;;
56141;SDS011;42018;48.588;10.836;2022-11-14T07:32:23;10.90;;;7.97;;
56141;SDS011;42018;48.588;10.836;2022-11-14T07:35:09;9.40;;;7.38;;
56141;SDS011;42018;48.588;10.836;2022-11-14T07:37:59;12.80;;;8.02;;
56141;SDS011;42018;48.588;10.836;2022-11-14T07:40:56;13.02;;;7.88;;
56141;SDS011;42018;48.588;10.836;2022-11-14T07:43:45;10.88;;;7.75;;
56141;SDS011;42018;48.588;10.836;2022-11-14T07:46:31;10.57;;;7.68;;
56141;SDS011;42018;48.588;10.836;2022-11-14T07:49:16;9.95;;;6.85;;
56141;SDS011;42018;48.588;10.836;2022-11-14T07:52:01;9.68;;;7.15;;
56141;SDS011;42018;48.588;10.836;2022-11-14T07:54:47;9.68;;;6.80;;
56141;SDS011;42018;48.588;10.836;2022-11-14T07:57:32;9.90;;;6.85;;
56141;SDS011;42018;48.588;10.836;2022-11-14T08:00:18;9.27;;;6.55;;
56141;SDS011;42018;48.588;10.836;2022-11-14T08:03:05;14.52;;;6.90;;
56141;SDS011;42018;48.588;10.836;2022-11-14T08:05:51;9.13;;;6.53;;
56141;SDS011;42018;48.588;10.836;2022-11-14T08:08:44;8.43;;;5.90;;
56141;SDS011;42018;48.588;10.836;2022-11-14T08:11:30;9.23;;;6.40;;
56141;SDS011;42018;48.588;10.836;2022-11-14T08:14:33;8.63;;;5.80;;
56141;SDS011;42018;48.588;10.836;2022-11-14T08:17:19;7.93;;;5.53;;
56141;SDS011;42018;48.588;10.836;2022-11-14T08:20:06;8.15;;;6.50;;
56141;SDS011;42018;48.588;10.836;2022-11-14T08:23:02;7.80;;;5.85;;
56141;SDS011;42018;48.588;10.836;2022-11-14T08:25:51;8.05;;;5.97;;
56141;SDS011;42018;48.588;10.836;2022-11-14T08:28:36;8.02;;;5.60;;
56141;SDS011;42018;48.588;10.836;2022-11-14T08:31:22;9.40;;;7.03;;
56141;SDS011;42018;48.588;10.836;2022-11-14T08:34:07;7.97;;;6.38;;
56141;SDS011;42018;48.588;10.836;2022-11-14T08:36:53;8.32;;;5.75;;
56141;SDS011;42018;48.588;10.836;2022-11-14T08:39:41;9.07;;;6.63;;
56141;SDS011;42018;48.588;10.836;2022-11-14T08:42:26;9.38;;;6.15;;
56141;SDS011;42018;48.588;10.836;2022-11-14T08:45:11;8.43;;;6.18;;
56141;SDS011;42018;48.588;10.836;2022-11-14T08:47:57;8.57;;;6.65;;
56141;SDS011;42018;48.588;10.836;2022-11-14T08:50:42;8.20;;;6.22;;
56141;SDS011;42018;48.588;10.836;2022-11-14T08:53:28;8.38;;;6.30;;
56141;SDS011;42018;48.588;10.836;2022-11-14T08:56:13;8.82;;;6.55;;
56141;SDS011;42018;48.588;10.836;2022-11-14T08:59:01;8.90;;;6.93;;
56141;SDS011;42018;48.588;10.836;2022-11-14T09:01:47;8.35;;;6.78;;
56141;SDS011;42018;48.588;10.836;2022-11-14T09:04:33;8.52;;;6.22;;
56141;SDS011;42018;48.588;10.836;2022-11-14T09:07:18;11.98;;;7.13;;
56141;SDS011;42018;48.588;10.836;2022-11-14T09:10:04;8.98;;;6.43;;
56141;SDS011;42018;48.588;10.836;2022-11-14T09:12:59;8.43;;;6.57;;
56141;SDS011;42018;48.588;10.836;2022-11-14T09:15:45;10.10;;;7.32;;
56141;SDS011;42018;48.588;10.836;2022-11-14T09:18:31;9.00;;;6.55;;
56141;SDS011;42018;48.588;10.836;2022-11-14T09:21:16;8.50;;;6.65;;
56141;SDS011;42018;48.588;10.836;2022-11-14T09:24:01;9.15;;;7.20;;
56141;SDS011;42018;48.588;10.836;2022-11-14T09:26:47;9.57;;;7.43;;
56141;SDS011;42018;48.588;10.836;2022-11-14T09:29:35;9.85;;;7.30;;
56141;SDS011;42018;48.588;10.836;2022-11-14T09:32:20;9.05;;;6.60;;
56141;SDS011;42018;48.588;10.836;2022-11-14T09:35:06;8.40;;;6.32;;
56141;SDS011;42018;48.588;10.836;2022-11-14T09:38:25;9.13;;;6.90;;
56141;SDS011;42018;48.588;10.836;2022-11-14T09:41:15;8.40;;;6.15;;
56141;SDS011;42018;48.588;10.836;2022-11-14T09:50:42;8.38;;;6.55;;
56141;SDS011;42018;48.588;10.836;2022-11-14T09:53:46;8.45;;;6.25;;
56141;SDS011;42018;48.588;10.836;2022-11-14T09:56:38;8.02;;;6.40;;
56141;SDS011;42018;48.588;10.836;2022-11-14T09:59:23;8.10;;;6.03;;
56141;SDS011;42018;48.588;10.836;2022-11-14T10:02:43;7.72;;;5.72;;
56141;SDS011;42018;48.588;10.836;2022-11-14T10:23:39;8.93;;;7.15;;
56141;SDS011;42018;48.588;10.836;2022-11-14T10:27:01;11.73;;;7.57;;
56141;SDS011;42018;48.588;10.836;2022-11-14T10:35:56;9.90;;;8.38;;
56141;SDS011;42018;48.588;10.836;2022-11-14T10:38:49;9.48;;;7.65;;
56141;SDS011;42018;48.588;10.836;2022-11-14T10:41:39;8.93;;;7.40;;
56141;SDS011;42018;48.588;10.836;2022-11-14T10:44:31;9.00;;;7.80;;
56141;SDS011;42018;48.588;10.836;2022-11-14T10:47:22;9.40;;;7.75;;
56141;SDS011;42018;48.588;10.836;2022-11-14T10:53:00;8.55;;;6.78;;
56141;SDS011;42018;48.588;10.836;2022-11-14T10:55:55;10.40;;;8.43;;
56141;SDS011;42018;48.588;10.836;2022-11-14T10:58:41;9.35;;;8.00;;
56141;SDS011;42018;48.588;10.836;2022-11-14T11:04:24;9.88;;;8.38;;
56141;SDS011;42018;48.588;10.836;2022-11-14T11:10:21;8.75;;;7.05;;
56141;SDS011;42018;48.588;10.836;2022-11-14T11:13:28;9.85;;;8.35;;
56141;SDS011;42018;48.588;10.836;2022-11-14T11:16:14;10.43;;;8.65;;
56141;SDS011;42018;48.588;10.836;2022-11-14T11:19:20;9.45;;;7.95;;
56141;SDS011;42018;48.588;10.836;2022-11-14T11:22:24;9.10;;;7.72;;
56141;SDS011;42018;48.588;10.836;2022-11-14T11:25:23;8.75;;;7.13;;
56141;SDS011;42018;48.588;10.836;2022-11-14T11:31:07;10.57;;;7.82;;
56141;SDS011;42018;48.588;10.836;2022-11-14T11:33:54;9.35;;;8.05;;
56141;SDS011;42018;48.588;10.836;2022-11-14T11:36:47;11.15;;;9.07;;
56141;SDS011;42018;48.588;10.836;2022-11-14T11:39:45;10.35;;;8.27;;
56141;SDS011;42018;48.588;10.836;2022-11-14T11:45:43;9.60;;;7.90;;
56141;SDS011;42018;48.588;10.836;2022-11-14T11:48:38;11.00;;;8.65;;
56141;SDS011;42018;48.588;10.836;2022-11-14T11:51:24;9.30;;;7.40;;
56141;SDS011;42018;48.588;10.836;2022-11-14T11:54:15;9.30;;;7.85;;
56141;SDS011;42018;48.588;10.836;2022-11-14T11:57:02;10.00;;;8.10;;
56141;SDS011;42018;48.588;10.836;2022-11-14T11:59:58;9.55;;;8.10;;
56141;SDS011;42018;48.588;10.836;2022-11-14T12:02:50;11.20;;;8.05;;
56141;SDS011;42018;48.588;10.836;2022-11-14T12:05:44;10.57;;;9.57;;
56141;SDS011;42018;48.588;10.836;2022-11-14T12:12:05;9.65;;;8.63;;
56141;SDS011;42018;48.588;10.836;2022-11-14T12:21:08;9.43;;;8.23;;
56141;SDS011;42018;48.588;10.836;2022-11-14T12:30:33;13.30;;;8.70;;
56141;SDS011;42018;48.588;10.836;2022-11-14T12:36:14;9.63;;;8.70;;
56141;SDS011;42018;48.588;10.836;2022-11-14T12:39:00;8.70;;;7.75;;
56141;SDS011;42018;48.588;10.836;2022-11-14T12:41:46;9.63;;;7.82;;
56141;SDS011;42018;48.588;10.836;2022-11-14T12:44:36;8.60;;;7.40;;
56141;SDS011;42018;48.588;10.836;2022-11-14T12:47:24;9.20;;;8.05;;
56141;SDS011;42018;48.588;10.836;2022-11-14T12:50:27;8.93;;;7.63;;
56141;SDS011;42018;48.588;10.836;2022-11-14T13:14:53;9.45;;;7.25;;
56141;SDS011;42018;48.588;10.836;2022-11-14T13:18:12;9.73;;;8.20;;
56141;SDS011;42018;48.588;10.836;2022-11-14T13:21:28;9.00;;;8.10;;
56141;SDS011;42018;48.588;10.836;2022-11-14T13:27:43;8.65;;;7.45;;
56141;SDS011;42018;48.588;10.836;2022-11-14T13:33:58;8.02;;;7.10;;
56141;SDS011;42018;48.588;10.836;2022-11-14T13:36:46;8.70;;;7.80;;
56141;SDS011;42018;48.588;10.836;2022-11-14T13:46:19;8.88;;;7.97;;
56141;SDS011;42018;48.588;10.836;2022-11-14T13:52:55;7.55;;;6.57;;
56141;SDS011;42018;48.588;10.836;2022-11-14T13:56:00;8.93;;;8.07;;
56141;SDS011;42018;48.588;10.836;2022-11-14T14:04:59;8.35;;;7.50;;
56141;SDS011;42018;48.588;10.836;2022-11-14T14:08:08;9.52;;;7.30;;
56141;SDS011;42018;48.588;10.836;2022-11-14T14:21:01;9.90;;;7.97;;
56141;SDS011;42018;48.588;10.836;2022-11-14T14:27:01;8.13;;;7.32;;
56141;SDS011;42018;48.588;10.836;2022-11-14T14:33:01;9.45;;;7.28;;
56141;SDS011;42018;48.588;10.836;2022-11-14T14:35:56;8.90;;;7.55;;
56141;SDS011;42018;48.588;10.836;2022-11-14T14:38:42;8.90;;;7.57;;
56141;SDS011;42018;48.588;10.836;2022-11-14T14:41:29;9.18;;;8.10;;
56141;SDS011;42018;48.588;10.836;2022-11-14T14:44:18;8.70;;;7.80;;
56141;SDS011;42018;48.588;10.836;2022-11-14T14:47:15;8.68;;;7.72;;
56141;SDS011;42018;48.588;10.836;2022-11-14T14:50:22;8.32;;;7.43;;
56141;SDS011;42018;48.588;10.836;2022-11-14T14:56:34;8.45;;;7.55;;
56141;SDS011;42018;48.588;10.836;2022-11-14T14:59:20;8.77;;;7.18;;
56141;SDS011;42018;48.588;10.836;2022-11-14T15:02:12;8.10;;;7.30;;
56141;SDS011;42018;48.588;10.836;2022-11-14T15:05:00;8.95;;;7.88;;
56141;SDS011;42018;48.588;10.836;2022-11-14T15:07:47;9.70;;;8.70;;
56141;SDS011;42018;48.588;10.836;2022-11-14T15:10:34;9.18;;;8.27;;
56141;SDS011;42018;48.588;10.836;2022-11-14T15:13:19;10.98;;;8.90;;
56141;SDS011;42018;48.588;10.836;2022-11-14T15:16:07;10.18;;;9.07;;
56141;SDS011;42018;48.588;10.836;2022-11-14T15:18:54;11.05;;;9.55;;
56141;SDS011;42018;48.588;10.836;2022-11-14T15:21:41;11.30;;;10.18;;
56141;SDS011;42018;48.588;10.836;2022-11-14T15:24:27;11.73;;;10.52;;
56141;SDS011;42018;48.588;10.836;2022-11-14T15:27:14;12.27;;;11.02;;
56141;SDS011;42018;48.588;10.836;2022-11-14T15:30:02;12.88;;;11.55;;
56141;SDS011;42018;48.588;10.836;2022-11-14T15:32:54;12.40;;;11.10;;
56141;SDS011;42018;48.588;10.836;2022-11-14T15:35:41;12.82;;;11.52;;
56141;SDS011;42018;48.588;10.836;2022-11-14T15:38:26;12.85;;;11.55;;
56141;SDS011;42018;48.588;10.836;2022-11-14T15:41:16;11.57;;;10.45;;
56141;SDS011;42018;48.588;10.836;2022-11-14T15:44:04;11.05;;;9.95;;
56141;SDS011;42018;48.588;10.836;2022-11-14T15:46:50;11.63;;;10.45;;
56141;SDS011;42018;48.588;10.836;2022-11-14T15:49:36;9.50;;;8.48;;
56141;SDS011;42018;48.588;10.836;2022-11-14T15:55:38;10.68;;;8.20;;
56141;SDS011;42018;48.588;10.836;2022-11-14T15:58:23;9.65;;;8.65;;
56141;SDS011;42018;48.588;10.836;2022-11-14T16:01:12;9.50;;;8.60;;
56141;SDS011;42018;48.588;10.836;2022-11-14T16:04:05;9.25;;;8.27;;
56141;SDS011;42018;48.588;10.836;2022-11-14T16:06:59;10.48;;;9.15;;
56141;SDS011;42018;48.588;10.836;2022-11-14T16:09:44;11.73;;;10.63;;
56141;SDS011;42018;48.588;10.836;2022-11-14T16:12:30;12.60;;;10.77;;
56141;SDS011;42018;48.588;10.836;2022-11-14T16:15:15;12.32;;;11.00;;
56141;SDS011;42018;48.588;10.836;2022-11-14T16:18:02;13.10;;;11.75;;
56141;SDS011;42018;48.588;10.836;2022-11-14T16:20:49;13.32;;;12.02;;
56141;SDS011;42018;48.588;10.836;2022-11-14T16:23:35;13.52;;;12.23;;
56141;SDS011;42018;48.588;10.836;2022-11-14T16:26:20;14.50;;;12.98;;
56141;SDS011;42018;48.588;10.836;2022-11-14T16:29:06;17.73;;;15.93;;
56141;SDS011;42018;48.588;10.836;2022-11-14T16:31:52;15.13;;;13.60;;
56141;SDS011;42018;48.588;10.836;2022-11-14T16:34:39;21.23;;;17.60;;
56141;SDS011;42018;48.588;10.836;2022-11-14T16:37:24;19.88;;;17.75;;
56141;SDS011;42018;48.588;10.836;2022-11-14T16:40:12;20.25;;;17.80;;
56141;SDS011;42018;48.588;10.836;2022-11-14T16:43:00;16.92;;;15.00;;
56141;SDS011;42018;48.588;10.836;2022-11-14T16:45:46;16.67;;;15.15;;
56141;SDS011;42018;48.588;10.836;2022-11-14T16:48:31;15.65;;;14.05;;
56141;SDS011;42018;48.588;10.836;2022-11-14T16:51:17;17.25;;;15.40;;
56141;SDS011;42018;48.588;10.836;2022-11-14T16:54:02;15.25;;;13.65;;
56141;SDS011;42018;48.588;10.836;2022-11-14T16:56:47;17.33;;;15.57;;
56141;SDS011;42018;48.588;10.836;2022-11-14T16:59:33;18.25;;;16.02;;
56141;SDS011;42018;48.588;10.836;2022-11-14T17:02:18;20.30;;;16.52;;
56141;SDS011;42018;48.588;10.836;2022-11-14T17:05:04;17.10;;;15.27;;
56141;SDS011;42018;48.588;10.836;2022-11-14T17:07:49;18.17;;;15.65;;
56141;SDS011;42018;48.588;10.836;2022-11-14T17:10:41;17.05;;;15.25;;
56141;SDS011;42018;48.588;10.836;2022-11-14T17:13:27;18.05;;;16.35;;
56141;SDS011;42018;48.588;10.836;2022-11-14T17:16:13;15.32;;;13.50;;
56141;SDS011;42018;48.588;10.836;2022-11-14T17:18:58;16.83;;;15.02;;
56141;SDS011;42018;48.588;10.836;2022-11-14T17:21:43;19.13;;;14.45;;
56141;SDS011;42018;48.588;10.836;2022-11-14T17:24:29;15.60;;;13.20;;
56141;SDS011;42018;48.588;10.836;2022-11-14T17:27:14;16.10;;;14.13;;
56141;SDS011;42018;48.588;10.836;2022-11-14T17:30:00;14.15;;;11.73;;
56141;SDS011;42018;48.588;10.836;2022-11-14T17:32:45;16.40;;;14.57;;
56141;SDS011;42018;48.588;10.836;2022-11-14T17:35:30;13.38;;;11.48;;
56141;SDS011;42018;48.588;10.836;2022-11-14T17:38:16;14.63;;;12.70;;
56141;SDS011;42018;48.588;10.836;2022-11-14T17:41:01;15.63;;;11.93;;
56141;SDS011;42018;48.588;10.836;2022-11-14T17:43:53;13.95;;;12.50;;
56141;SDS011;42018;48.588;10.836;2022-11-14T17:46:46;17.23;;;13.52;;
56141;SDS011;42018;48.588;10.836;2022-11-14T17:49:32;16.83;;;14.15;;
56141;SDS011;42018;48.588;10.836;2022-11-14T17:52:17;15.95;;;14.25;;
56141;SDS011;42018;48.588;10.836;2022-11-14T17:55:02;15.43;;;12.82;;
56141;SDS011;42018;48.588;10.836;2022-11-14T17:57:48;18.10;;;12.18;;
56141;SDS011;42018;48.588;10.836;2022-11-14T18:00:34;14.02;;;10.60;;
56141;SDS011;42018;48.588;10.836;2022-11-14T18:03:20;13.88;;;9.98;;
56141;SDS011;42018;48.588;10.836;2022-11-14T18:08:51;13.30;;;10.10;;
56141;SDS011;42018;48.588;10.836;2022-11-14T18:11:36;14.30;;;9.75;;
56141;SDS011;42018;48.588;10.836;2022-11-14T18:14:22;15.05;;;10.15;;
56141;SDS011;42018;48.588;10.836;2022-11-14T18:17:07;14.27;;;10.40;;
56141;SDS011;42018;48.588;10.836;2022-11-14T18:19:53;14.77;;;10.90;;
56141;SDS011;42018;48.588;10.836;2022-11-14T18:22:40;13.45;;;11.40;;
56141;SDS011;42018;48.588;10.836;2022-11-14T18:25:27;13.18;;;11.20;;
56141;SDS011;42018;48.588;10.836;2022-11-14T18:28:19;14.15;;;11.82;;
56141;SDS011;42018;48.588;10.836;2022-11-14T18:31:04;13.50;;;11.00;;
56141;SDS011;42018;48.588;10.836;2022-11-14T18:33:54;14.70;;;11.70;;
56141;SDS011;42018;48.588;10.836;2022-11-14T18:36:43;19.08;;;14.40;;
56141;SDS011;42018;48.588;10.836;2022-11-14T18:39:28;16.35;;;14.45;;
56141;SDS011;42018;48.588;10.836;2022-11-14T18:42:14;16.23;;;13.80;;
56141;SDS011;42018;48.588;10.836;2022-11-14T18:45:00;14.43;;;11.65;;
56141;SDS011;42018;48.588;10.836;2022-11-14T18:47:45;13.35;;;10.60;;